sensor_id;sensor_type;location;lat;lon;timestamp;P1;durP1;ratioP1;P2;durP2;ratioP2
77866;SDS011;67271;59.120;37.970;2023-06-22T00:05:10;3.88;;;2.47;;
77866;SDS011;67271;59.120;37.970;2023-06-22T00:07:36;2.22;;;1.80;;
77866;SDS011;67271;59.120;37.970;2023-06-22T00:10:02;3.42;;;2.50;;
77866;SDS011;67271;59.120;37.970;2023-06-22T00:12:28;9.30;;;3.08;;
77866;SDS011;67271;59.120;37.970;2023-06-22T00:14:54;4.18;;;2.50;;
77866;SDS011;67271;59.120;37.970;2023-06-22T00:17:20;3.03;;;2.00;;
77866;SDS011;67271;59.120;37.970;2023-06-22T00:19:47;2.92;;;2.03;;
77866;SDS011;67271;59.120;37.970;2023-06-22T00:22:18;3.60;;;2.58;;
77866;SDS011;67271;59.120;37.970;2023-06-22T00:24:54;4.47;;;2.63;;
77866;SDS011;67271;59.120;37.970;2023-06-22T00:27:21;5.22;;;2.58;;
77866;SDS011;67271;59.120;37.970;2023-06-22T00:29:47;5.32;;;2.60;;
77866;SDS011;67271;59.120;37.970;2023-06-22T00:32:12;2.78;;;2.10;;
77866;SDS011;67271;59.120;37.970;2023-06-22T00:34:38;3.72;;;2.67;;
77866;SDS011;67271;59.120;37.970;2023-06-22T00:37:04;4.40;;;2.30;;
77866;SDS011;67271;59.120;37.970;2023-06-22T00:39:33;3.83;;;2.30;;
77866;SDS011;67271;59.120;37.970;2023-06-22T00:41:59;5.18;;;2.50;;
77866;SDS011;67271;59.120;37.970;2023-06-22T00:44:25;3.63;;;2.70;;
77866;SDS011;67271;59.120;37.970;2023-06-22T00:46:54;5.40;;;2.75;;
77866;SDS011;67271;59.120;37.970;2023-06-22T00:49:20;4.80;;;2.95;;
77866;SDS011;67271;59.120;37.970;2023-06-22T00:51:49;3.97;;;2.58;;
77866;SDS011;67271;59.120;37.970;2023-06-22T00:54:15;4.15;;;2.30;;
77866;SDS011;67271;59.120;37.970;2023-06-22T00:56:41;4.53;;;2.70;;
77866;SDS011;67271;59.120;37.970;2023-06-22T00:59:07;4.35;;;2.60;;
77866;SDS011;67271;59.120;37.970;2023-06-22T01:01:37;4.00;;;2.60;;
77866;SDS011;67271;59.120;37.970;2023-06-22T01:06:35;5.75;;;2.45;;
77866;SDS011;67271;59.120;37.970;2023-06-22T01:09:20;11.50;;;3.10;;
77866;SDS011;67271;59.120;37.970;2023-06-22T01:11:54;3.88;;;2.70;;
77866;SDS011;67271;59.120;37.970;2023-06-22T01:14:31;4.10;;;2.75;;
77866;SDS011;67271;59.120;37.970;2023-06-22T01:17:00;3.88;;;2.53;;
77866;SDS011;67271;59.120;37.970;2023-06-22T01:22:17;3.20;;;2.22;;
77866;SDS011;67271;59.120;37.970;2023-06-22T01:24:57;3.88;;;2.13;;
77866;SDS011;67271;59.120;37.970;2023-06-22T01:30:21;4.22;;;2.70;;
77866;SDS011;67271;59.120;37.970;2023-06-22T01:32:51;4.05;;;2.40;;
77866;SDS011;67271;59.120;37.970;2023-06-22T01:35:19;6.15;;;2.75;;
77866;SDS011;67271;59.120;37.970;2023-06-22T01:37:46;5.35;;;2.67;;
77866;SDS011;67271;59.120;37.970;2023-06-22T01:40:13;3.42;;;2.40;;
77866;SDS011;67271;59.120;37.970;2023-06-22T01:42:40;4.40;;;2.88;;
77866;SDS011;67271;59.120;37.970;2023-06-22T01:45:08;7.80;;;2.33;;
77866;SDS011;67271;59.120;37.970;2023-06-22T01:47:37;3.95;;;2.47;;
77866;SDS011;67271;59.120;37.970;2023-06-22T01:50:04;9.93;;;3.05;;
77866;SDS011;67271;59.120;37.970;2023-06-22T01:52:32;4.53;;;2.88;;
77866;SDS011;67271;59.120;37.970;2023-06-22T01:54:59;5.40;;;2.30;;
77866;SDS011;67271;59.120;37.970;2023-06-22T01:57:26;3.95;;;2.80;;
77866;SDS011;67271;59.120;37.970;2023-06-22T01:59:57;3.92;;;2.42;;
77866;SDS011;67271;59.120;37.970;2023-06-22T02:02:27;4.88;;;3.03;;
77866;SDS011;67271;59.120;37.970;2023-06-22T02:05:15;4.07;;;2.42;;
77866;SDS011;67271;59.120;37.970;2023-06-22T02:10:34;7.85;;;3.55;;
77866;SDS011;67271;59.120;37.970;2023-06-22T02:13:06;4.93;;;2.53;;
77866;SDS011;67271;59.120;37.970;2023-06-22T02:15:33;3.65;;;2.50;;
77866;SDS011;67271;59.120;37.970;2023-06-22T02:18:00;5.22;;;2.70;;
77866;SDS011;67271;59.120;37.970;2023-06-22T02:20:26;7.53;;;2.83;;
77866;SDS011;67271;59.120;37.970;2023-06-22T02:22:52;5.10;;;2.58;;
77866;SDS011;67271;59.120;37.970;2023-06-22T02:25:18;4.43;;;2.35;;
77866;SDS011;67271;59.120;37.970;2023-06-22T02:27:45;5.07;;;2.80;;
77866;SDS011;67271;59.120;37.970;2023-06-22T02:30:11;3.42;;;2.25;;
77866;SDS011;67271;59.120;37.970;2023-06-22T02:32:38;4.85;;;2.60;;
77866;SDS011;67271;59.120;37.970;2023-06-22T02:35:07;5.10;;;2.70;;
77866;SDS011;67271;59.120;37.970;2023-06-22T02:37:35;5.50;;;2.92;;
77866;SDS011;67271;59.120;37.970;2023-06-22T02:40:09;4.32;;;2.50;;
77866;SDS011;67271;59.120;37.970;2023-06-22T02:42:36;5.32;;;2.53;;
77866;SDS011;67271;59.120;37.970;2023-06-22T02:45:03;3.75;;;2.70;;
77866;SDS011;67271;59.120;37.970;2023-06-22T02:47:29;3.88;;;2.38;;
77866;SDS011;67271;59.120;37.970;2023-06-22T02:49:55;3.97;;;2.55;;
77866;SDS011;67271;59.120;37.970;2023-06-22T02:52:22;3.38;;;2.58;;
77866;SDS011;67271;59.120;37.970;2023-06-22T02:54:48;4.45;;;2.78;;
77866;SDS011;67271;59.120;37.970;2023-06-22T02:57:14;4.35;;;2.70;;
77866;SDS011;67271;59.120;37.970;2023-06-22T02:59:41;4.57;;;2.85;;
77866;SDS011;67271;59.120;37.970;2023-06-22T03:02:10;4.65;;;2.65;;
77866;SDS011;67271;59.120;37.970;2023-06-22T03:04:37;6.45;;;3.00;;
77866;SDS011;67271;59.120;37.970;2023-06-22T03:07:03;4.53;;;2.58;;
77866;SDS011;67271;59.120;37.970;2023-06-22T03:09:30;3.17;;;2.13;;
77866;SDS011;67271;59.120;37.970;2023-06-22T03:11:57;13.95;;;2.95;;
77866;SDS011;67271;59.120;37.970;2023-06-22T03:14:27;8.20;;;2.88;;
77866;SDS011;67271;59.120;37.970;2023-06-22T03:16:53;7.30;;;2.47;;
77866;SDS011;67271;59.120;37.970;2023-06-22T03:19:19;4.65;;;3.00;;
77866;SDS011;67271;59.120;37.970;2023-06-22T03:21:47;7.72;;;2.72;;
77866;SDS011;67271;59.120;37.970;2023-06-22T03:24:13;3.72;;;2.55;;
77866;SDS011;67271;59.120;37.970;2023-06-22T03:26:39;8.38;;;2.85;;
77866;SDS011;67271;59.120;37.970;2023-06-22T03:29:05;3.90;;;2.47;;
77866;SDS011;67271;59.120;37.970;2023-06-22T03:31:33;4.18;;;2.60;;
77866;SDS011;67271;59.120;37.970;2023-06-22T03:33:59;6.30;;;3.20;;
77866;SDS011;67271;59.120;37.970;2023-06-22T03:36:25;7.22;;;3.25;;
77866;SDS011;67271;59.120;37.970;2023-06-22T03:38:52;5.72;;;2.70;;
77866;SDS011;67271;59.120;37.970;2023-06-22T03:41:18;4.88;;;2.65;;
77866;SDS011;67271;59.120;37.970;2023-06-22T03:43:43;9.63;;;2.83;;
77866;SDS011;67271;59.120;37.970;2023-06-22T03:46:09;3.50;;;2.50;;
77866;SDS011;67271;59.120;37.970;2023-06-22T03:48:35;4.60;;;2.80;;
77866;SDS011;67271;59.120;37.970;2023-06-22T03:51:02;4.38;;;2.90;;
77866;SDS011;67271;59.120;37.970;2023-06-22T03:53:28;4.78;;;2.92;;
77866;SDS011;67271;59.120;37.970;2023-06-22T03:55:55;4.90;;;3.38;;
77866;SDS011;67271;59.120;37.970;2023-06-22T03:58:21;5.47;;;2.70;;
77866;SDS011;67271;59.120;37.970;2023-06-22T04:00:50;7.25;;;3.13;;
77866;SDS011;67271;59.120;37.970;2023-06-22T04:03:17;6.32;;;2.80;;
77866;SDS011;67271;59.120;37.970;2023-06-22T04:05:44;3.78;;;2.60;;
77866;SDS011;67271;59.120;37.970;2023-06-22T04:08:12;4.15;;;2.80;;
77866;SDS011;67271;59.120;37.970;2023-06-22T04:10:38;5.43;;;2.65;;
77866;SDS011;67271;59.120;37.970;2023-06-22T04:13:04;4.05;;;3.35;;
77866;SDS011;67271;59.120;37.970;2023-06-22T04:15:30;5.18;;;3.17;;
77866;SDS011;67271;59.120;37.970;2023-06-22T04:17:56;4.13;;;2.95;;
77866;SDS011;67271;59.120;37.970;2023-06-22T04:20:22;7.95;;;3.30;;
77866;SDS011;67271;59.120;37.970;2023-06-22T04:22:52;5.55;;;3.20;;
77866;SDS011;67271;59.120;37.970;2023-06-22T04:25:19;10.20;;;2.80;;
77866;SDS011;67271;59.120;37.970;2023-06-22T04:27:46;6.40;;;3.40;;
77866;SDS011;67271;59.120;37.970;2023-06-22T04:30:12;8.82;;;3.08;;
77866;SDS011;67271;59.120;37.970;2023-06-22T04:32:40;6.72;;;3.55;;
77866;SDS011;67271;59.120;37.970;2023-06-22T04:35:06;12.18;;;3.63;;
77866;SDS011;67271;59.120;37.970;2023-06-22T04:37:33;6.28;;;3.10;;
77866;SDS011;67271;59.120;37.970;2023-06-22T04:39:59;6.18;;;3.08;;
77866;SDS011;67271;59.120;37.970;2023-06-22T04:42:28;9.00;;;3.22;;
77866;SDS011;67271;59.120;37.970;2023-06-22T04:44:53;8.95;;;3.90;;
77866;SDS011;67271;59.120;37.970;2023-06-22T04:47:19;7.95;;;3.40;;
77866;SDS011;67271;59.120;37.970;2023-06-22T04:49:46;5.43;;;3.22;;
77866;SDS011;67271;59.120;37.970;2023-06-22T04:52:12;7.30;;;2.90;;
77866;SDS011;67271;59.120;37.970;2023-06-22T04:54:39;10.30;;;3.17;;
77866;SDS011;67271;59.120;37.970;2023-06-22T04:57:13;8.25;;;3.33;;
77866;SDS011;67271;59.120;37.970;2023-06-22T04:59:40;8.07;;;3.88;;
77866;SDS011;67271;59.120;37.970;2023-06-22T05:02:07;5.57;;;3.25;;
77866;SDS011;67271;59.120;37.970;2023-06-22T05:04:33;4.07;;;2.70;;
77866;SDS011;67271;59.120;37.970;2023-06-22T05:07:01;5.22;;;3.30;;
77866;SDS011;67271;59.120;37.970;2023-06-22T05:09:28;6.45;;;3.38;;
77866;SDS011;67271;59.120;37.970;2023-06-22T05:11:55;4.75;;;3.45;;
77866;SDS011;67271;59.120;37.970;2023-06-22T05:14:25;3.83;;;2.90;;
77866;SDS011;67271;59.120;37.970;2023-06-22T05:16:50;8.20;;;3.58;;
77866;SDS011;67271;59.120;37.970;2023-06-22T05:19:19;6.85;;;3.70;;
77866;SDS011;67271;59.120;37.970;2023-06-22T05:21:45;10.80;;;3.78;;
77866;SDS011;67271;59.120;37.970;2023-06-22T05:24:11;6.25;;;3.50;;
77866;SDS011;67271;59.120;37.970;2023-06-22T05:26:37;6.35;;;3.67;;
77866;SDS011;67271;59.120;37.970;2023-06-22T05:29:03;5.15;;;3.70;;
77866;SDS011;67271;59.120;37.970;2023-06-22T05:31:29;7.28;;;3.78;;
77866;SDS011;67271;59.120;37.970;2023-06-22T05:33:55;7.85;;;3.90;;
77866;SDS011;67271;59.120;37.970;2023-06-22T05:36:21;7.30;;;3.42;;
77866;SDS011;67271;59.120;37.970;2023-06-22T05:38:51;5.30;;;3.40;;
77866;SDS011;67271;59.120;37.970;2023-06-22T05:41:17;6.85;;;3.20;;
77866;SDS011;67271;59.120;37.970;2023-06-22T05:43:45;5.53;;;3.50;;
77866;SDS011;67271;59.120;37.970;2023-06-22T05:46:11;6.82;;;3.58;;
77866;SDS011;67271;59.120;37.970;2023-06-22T05:48:38;6.57;;;3.45;;
77866;SDS011;67271;59.120;37.970;2023-06-22T05:51:03;5.60;;;3.42;;
77866;SDS011;67271;59.120;37.970;2023-06-22T05:53:29;5.07;;;3.10;;
77866;SDS011;67271;59.120;37.970;2023-06-22T05:55:55;8.05;;;3.83;;
77866;SDS011;67271;59.120;37.970;2023-06-22T05:58:21;5.30;;;3.42;;
77866;SDS011;67271;59.120;37.970;2023-06-22T06:00:47;6.18;;;3.90;;
77866;SDS011;67271;59.120;37.970;2023-06-22T06:03:13;8.27;;;4.57;;
77866;SDS011;67271;59.120;37.970;2023-06-22T06:05:42;10.20;;;3.53;;
77866;SDS011;67271;59.120;37.970;2023-06-22T06:08:09;7.47;;;3.42;;
77866;SDS011;67271;59.120;37.970;2023-06-22T06:10:36;8.40;;;4.18;;
77866;SDS011;67271;59.120;37.970;2023-06-22T06:13:02;13.40;;;4.70;;
77866;SDS011;67271;59.120;37.970;2023-06-22T06:15:30;11.77;;;3.92;;
77866;SDS011;67271;59.120;37.970;2023-06-22T06:17:57;8.50;;;4.10;;
77866;SDS011;67271;59.120;37.970;2023-06-22T06:20:23;5.80;;;3.75;;
77866;SDS011;67271;59.120;37.970;2023-06-22T06:22:51;8.13;;;4.10;;
77866;SDS011;67271;59.120;37.970;2023-06-22T06:25:17;8.55;;;4.43;;
77866;SDS011;67271;59.120;37.970;2023-06-22T06:27:45;7.65;;;4.03;;
77866;SDS011;67271;59.120;37.970;2023-06-22T06:30:12;8.95;;;3.60;;
77866;SDS011;67271;59.120;37.970;2023-06-22T06:32:40;6.25;;;3.53;;
77866;SDS011;67271;59.120;37.970;2023-06-22T06:35:07;7.40;;;3.88;;
77866;SDS011;67271;59.120;37.970;2023-06-22T06:41:58;6.15;;;3.65;;
77866;SDS011;67271;59.120;37.970;2023-06-22T06:44:24;5.70;;;3.45;;
77866;SDS011;67271;59.120;37.970;2023-06-22T06:46:50;8.50;;;4.60;;
77866;SDS011;67271;59.120;37.970;2023-06-22T06:49:15;9.10;;;4.43;;
77866;SDS011;67271;59.120;37.970;2023-06-22T06:51:44;8.25;;;3.97;;
77866;SDS011;67271;59.120;37.970;2023-06-22T06:54:10;7.35;;;4.70;;
77866;SDS011;67271;59.120;37.970;2023-06-22T06:56:36;13.52;;;3.72;;
77866;SDS011;67271;59.120;37.970;2023-06-22T06:59:02;8.38;;;4.25;;
77866;SDS011;67271;59.120;37.970;2023-06-22T07:01:30;7.88;;;3.83;;
77866;SDS011;67271;59.120;37.970;2023-06-22T07:03:59;7.32;;;4.30;;
77866;SDS011;67271;59.120;37.970;2023-06-22T07:06:26;4.72;;;3.28;;
77866;SDS011;67271;59.120;37.970;2023-06-22T07:08:55;10.90;;;3.92;;
77866;SDS011;67271;59.120;37.970;2023-06-22T07:11:21;4.85;;;3.40;;
77866;SDS011;67271;59.120;37.970;2023-06-22T07:13:47;7.75;;;4.85;;
77866;SDS011;67271;59.120;37.970;2023-06-22T07:16:12;11.20;;;4.70;;
77866;SDS011;67271;59.120;37.970;2023-06-22T07:18:39;5.70;;;4.03;;
77866;SDS011;67271;59.120;37.970;2023-06-22T07:21:08;8.50;;;4.60;;
77866;SDS011;67271;59.120;37.970;2023-06-22T07:23:34;4.65;;;3.42;;
77866;SDS011;67271;59.120;37.970;2023-06-22T07:26:00;9.63;;;3.72;;
77866;SDS011;67271;59.120;37.970;2023-06-22T07:28:31;7.03;;;3.17;;
77866;SDS011;67271;59.120;37.970;2023-06-22T07:31:02;8.13;;;4.00;;
77866;SDS011;67271;59.120;37.970;2023-06-22T07:33:29;6.95;;;3.63;;
77866;SDS011;67271;59.120;37.970;2023-06-22T07:35:55;6.75;;;3.70;;
77866;SDS011;67271;59.120;37.970;2023-06-22T07:38:21;11.75;;;4.22;;
77866;SDS011;67271;59.120;37.970;2023-06-22T07:40:47;5.85;;;3.75;;
77866;SDS011;67271;59.120;37.970;2023-06-22T07:43:13;7.85;;;3.35;;
77866;SDS011;67271;59.120;37.970;2023-06-22T07:45:38;5.18;;;3.85;;
77866;SDS011;67271;59.120;37.970;2023-06-22T07:48:06;9.60;;;3.70;;
77866;SDS011;67271;59.120;37.970;2023-06-22T07:50:32;10.52;;;3.72;;
77866;SDS011;67271;59.120;37.970;2023-06-22T07:52:58;5.68;;;3.60;;
77866;SDS011;67271;59.120;37.970;2023-06-22T07:55:24;5.97;;;3.80;;
77866;SDS011;67271;59.120;37.970;2023-06-22T07:57:50;6.63;;;3.90;;
77866;SDS011;67271;59.120;37.970;2023-06-22T08:00:17;6.72;;;3.80;;
77866;SDS011;67271;59.120;37.970;2023-06-22T08:02:44;8.73;;;3.58;;
77866;SDS011;67271;59.120;37.970;2023-06-22T08:05:11;5.18;;;3.97;;
77866;SDS011;67271;59.120;37.970;2023-06-22T08:07:37;4.97;;;3.28;;
77866;SDS011;67271;59.120;37.970;2023-06-22T08:10:04;7.80;;;4.55;;
77866;SDS011;67271;59.120;37.970;2023-06-22T08:12:31;6.32;;;3.75;;
77866;SDS011;67271;59.120;37.970;2023-06-22T08:14:57;9.20;;;3.42;;
77866;SDS011;67271;59.120;37.970;2023-06-22T08:17:23;6.35;;;3.63;;
77866;SDS011;67271;59.120;37.970;2023-06-22T08:19:50;5.68;;;3.50;;
77866;SDS011;67271;59.120;37.970;2023-06-22T08:22:16;6.35;;;3.97;;
77866;SDS011;67271;59.120;37.970;2023-06-22T08:24:43;7.50;;;3.13;;
77866;SDS011;67271;59.120;37.970;2023-06-22T08:27:09;4.47;;;3.17;;
77866;SDS011;67271;59.120;37.970;2023-06-22T08:29:38;4.57;;;3.20;;
77866;SDS011;67271;59.120;37.970;2023-06-22T08:32:05;5.25;;;3.25;;
77866;SDS011;67271;59.120;37.970;2023-06-22T08:37:50;4.28;;;2.92;;
77866;SDS011;67271;59.120;37.970;2023-06-22T08:40:19;6.03;;;3.67;;
77866;SDS011;67271;59.120;37.970;2023-06-22T08:42:45;5.47;;;3.30;;
77866;SDS011;67271;59.120;37.970;2023-06-22T08:45:12;5.47;;;3.55;;
77866;SDS011;67271;59.120;37.970;2023-06-22T08:47:39;4.30;;;3.05;;
77866;SDS011;67271;59.120;37.970;2023-06-22T08:50:16;5.32;;;3.13;;
77866;SDS011;67271;59.120;37.970;2023-06-22T08:52:42;5.28;;;3.08;;
77866;SDS011;67271;59.120;37.970;2023-06-22T08:55:09;7.00;;;3.13;;
77866;SDS011;67271;59.120;37.970;2023-06-22T08:57:36;4.05;;;3.05;;
77866;SDS011;67271;59.120;37.970;2023-06-22T09:00:05;4.75;;;3.20;;
77866;SDS011;67271;59.120;37.970;2023-06-22T09:02:36;4.22;;;3.10;;
77866;SDS011;67271;59.120;37.970;2023-06-22T09:05:03;6.13;;;3.47;;
77866;SDS011;67271;59.120;37.970;2023-06-22T09:07:30;4.07;;;2.75;;
77866;SDS011;67271;59.120;37.970;2023-06-22T09:09:55;5.35;;;3.40;;
77866;SDS011;67271;59.120;37.970;2023-06-22T09:12:22;4.25;;;2.80;;
77866;SDS011;67271;59.120;37.970;2023-06-22T09:14:51;4.80;;;2.80;;
77866;SDS011;67271;59.120;37.970;2023-06-22T09:17:17;6.72;;;3.40;;
77866;SDS011;67271;59.120;37.970;2023-06-22T09:19:43;5.47;;;3.20;;
77866;SDS011;67271;59.120;37.970;2023-06-22T09:22:09;4.32;;;2.88;;
77866;SDS011;67271;59.120;37.970;2023-06-22T09:24:35;4.85;;;3.45;;
77866;SDS011;67271;59.120;37.970;2023-06-22T09:27:01;4.35;;;3.05;;
77866;SDS011;67271;59.120;37.970;2023-06-22T09:29:27;7.07;;;3.15;;
77866;SDS011;67271;59.120;37.970;2023-06-22T09:31:52;5.07;;;3.13;;
77866;SDS011;67271;59.120;37.970;2023-06-22T09:34:21;4.78;;;3.20;;
77866;SDS011;67271;59.120;37.970;2023-06-22T09:36:47;4.90;;;3.08;;
77866;SDS011;67271;59.120;37.970;2023-06-22T09:39:13;5.70;;;2.90;;
77866;SDS011;67271;59.120;37.970;2023-06-22T09:41:39;6.78;;;3.45;;
77866;SDS011;67271;59.120;37.970;2023-06-22T09:44:05;10.00;;;3.60;;
77866;SDS011;67271;59.120;37.970;2023-06-22T09:46:31;6.03;;;3.50;;
77866;SDS011;67271;59.120;37.970;2023-06-22T09:48:56;5.43;;;3.30;;
77866;SDS011;67271;59.120;37.970;2023-06-22T09:51:22;7.50;;;2.83;;
77866;SDS011;67271;59.120;37.970;2023-06-22T09:53:49;5.93;;;3.22;;
77866;SDS011;67271;59.120;37.970;2023-06-22T09:56:15;4.95;;;3.40;;
77866;SDS011;67271;59.120;37.970;2023-06-22T09:58:42;5.43;;;2.92;;
77866;SDS011;67271;59.120;37.970;2023-06-22T10:01:08;6.10;;;3.10;;
77866;SDS011;67271;59.120;37.970;2023-06-22T10:03:35;5.28;;;3.15;;
77866;SDS011;67271;59.120;37.970;2023-06-22T10:06:02;8.43;;;3.25;;
77866;SDS011;67271;59.120;37.970;2023-06-22T10:08:28;8.15;;;3.45;;
77866;SDS011;67271;59.120;37.970;2023-06-22T10:10:56;5.88;;;3.20;;
77866;SDS011;67271;59.120;37.970;2023-06-22T10:13:22;6.00;;;2.80;;
77866;SDS011;67271;59.120;37.970;2023-06-22T10:15:48;8.00;;;3.45;;
77866;SDS011;67271;59.120;37.970;2023-06-22T10:18:16;4.80;;;3.00;;
77866;SDS011;67271;59.120;37.970;2023-06-22T10:20:48;5.00;;;2.92;;
77866;SDS011;67271;59.120;37.970;2023-06-22T10:23:21;6.18;;;3.03;;
77866;SDS011;67271;59.120;37.970;2023-06-22T10:25:47;6.60;;;3.20;;
77866;SDS011;67271;59.120;37.970;2023-06-22T10:28:13;6.13;;;2.92;;
77866;SDS011;67271;59.120;37.970;2023-06-22T10:30:40;6.70;;;3.72;;
77866;SDS011;67271;59.120;37.970;2023-06-22T10:33:07;5.13;;;3.17;;
77866;SDS011;67271;59.120;37.970;2023-06-22T10:35:36;7.00;;;3.33;;
77866;SDS011;67271;59.120;37.970;2023-06-22T10:40:31;3.70;;;2.83;;
77866;SDS011;67271;59.120;37.970;2023-06-22T10:42:57;5.38;;;3.28;;
77866;SDS011;67271;59.120;37.970;2023-06-22T10:45:23;8.75;;;3.47;;
77866;SDS011;67271;59.120;37.970;2023-06-22T10:47:49;5.07;;;3.60;;
77866;SDS011;67271;59.120;37.970;2023-06-22T10:50:15;7.00;;;3.10;;
77866;SDS011;67271;59.120;37.970;2023-06-22T10:52:41;9.35;;;3.10;;
77866;SDS011;67271;59.120;37.970;2023-06-22T10:55:08;4.78;;;2.88;;
77866;SDS011;67271;59.120;37.970;2023-06-22T10:57:34;4.95;;;2.90;;
77866;SDS011;67271;59.120;37.970;2023-06-22T11:00:00;5.40;;;2.75;;
77866;SDS011;67271;59.120;37.970;2023-06-22T11:02:26;8.02;;;3.55;;
77866;SDS011;67271;59.120;37.970;2023-06-22T11:04:53;5.95;;;3.15;;
77866;SDS011;67271;59.120;37.970;2023-06-22T11:07:19;5.07;;;3.58;;
77866;SDS011;67271;59.120;37.970;2023-06-22T11:09:45;6.43;;;3.60;;
77866;SDS011;67271;59.120;37.970;2023-06-22T11:12:11;6.53;;;3.63;;
77866;SDS011;67271;59.120;37.970;2023-06-22T11:14:38;5.95;;;2.92;;
77866;SDS011;67271;59.120;37.970;2023-06-22T11:17:07;5.68;;;3.55;;
77866;SDS011;67271;59.120;37.970;2023-06-22T11:19:33;6.07;;;3.65;;
77866;SDS011;67271;59.120;37.970;2023-06-22T11:21:59;6.35;;;3.08;;
77866;SDS011;67271;59.120;37.970;2023-06-22T11:24:25;4.35;;;3.30;;
77866;SDS011;67271;59.120;37.970;2023-06-22T11:26:51;5.40;;;3.15;;
77866;SDS011;67271;59.120;37.970;2023-06-22T11:29:16;5.75;;;3.60;;
77866;SDS011;67271;59.120;37.970;2023-06-22T11:31:42;7.47;;;3.45;;
77866;SDS011;67271;59.120;37.970;2023-06-22T11:34:08;3.88;;;2.80;;
77866;SDS011;67271;59.120;37.970;2023-06-22T11:36:34;4.82;;;3.00;;
77866;SDS011;67271;59.120;37.970;2023-06-22T11:39:01;7.97;;;3.60;;
77866;SDS011;67271;59.120;37.970;2023-06-22T11:41:27;7.20;;;4.30;;
77866;SDS011;67271;59.120;37.970;2023-06-22T11:43:54;9.35;;;3.15;;
77866;SDS011;67271;59.120;37.970;2023-06-22T11:46:19;5.72;;;3.42;;
77866;SDS011;67271;59.120;37.970;2023-06-22T11:48:45;6.68;;;3.47;;
77866;SDS011;67271;59.120;37.970;2023-06-22T11:51:11;4.03;;;3.22;;
77866;SDS011;67271;59.120;37.970;2023-06-22T11:53:37;8.73;;;3.78;;
77866;SDS011;67271;59.120;37.970;2023-06-22T11:56:03;7.90;;;2.90;;
77866;SDS011;67271;59.120;37.970;2023-06-22T11:58:29;6.95;;;3.42;;
77866;SDS011;67271;59.120;37.970;2023-06-22T12:00:55;5.82;;;2.97;;
77866;SDS011;67271;59.120;37.970;2023-06-22T12:03:21;5.22;;;2.85;;
77866;SDS011;67271;59.120;37.970;2023-06-22T12:05:47;3.88;;;2.88;;
77866;SDS011;67271;59.120;37.970;2023-06-22T12:08:13;9.90;;;3.47;;
77866;SDS011;67271;59.120;37.970;2023-06-22T12:10:39;7.70;;;3.38;;
77866;SDS011;67271;59.120;37.970;2023-06-22T12:13:05;6.28;;;3.80;;
77866;SDS011;67271;59.120;37.970;2023-06-22T12:15:31;5.20;;;2.95;;
77866;SDS011;67271;59.120;37.970;2023-06-22T12:17:57;7.88;;;3.53;;
77866;SDS011;67271;59.120;37.970;2023-06-22T12:20:23;4.75;;;3.35;;
77866;SDS011;67271;59.120;37.970;2023-06-22T12:22:49;6.13;;;3.55;;
77866;SDS011;67271;59.120;37.970;2023-06-22T12:25:17;4.28;;;3.03;;
77866;SDS011;67271;59.120;37.970;2023-06-22T12:27:42;5.00;;;3.17;;
77866;SDS011;67271;59.120;37.970;2023-06-22T12:30:09;8.93;;;3.45;;
77866;SDS011;67271;59.120;37.970;2023-06-22T12:32:36;7.07;;;3.33;;
77866;SDS011;67271;59.120;37.970;2023-06-22T12:35:02;5.13;;;3.17;;
77866;SDS011;67271;59.120;37.970;2023-06-22T12:37:28;5.65;;;3.80;;
77866;SDS011;67271;59.120;37.970;2023-06-22T12:39:56;4.63;;;3.08;;
77866;SDS011;67271;59.120;37.970;2023-06-22T12:42:22;5.15;;;3.15;;
77866;SDS011;67271;59.120;37.970;2023-06-22T12:44:48;4.40;;;3.10;;
77866;SDS011;67271;59.120;37.970;2023-06-22T12:47:14;5.10;;;3.22;;
77866;SDS011;67271;59.120;37.970;2023-06-22T12:49:40;5.07;;;3.47;;
77866;SDS011;67271;59.120;37.970;2023-06-22T12:52:09;4.93;;;3.38;;
77866;SDS011;67271;59.120;37.970;2023-06-22T12:54:36;5.22;;;3.13;;
77866;SDS011;67271;59.120;37.970;2023-06-22T12:57:02;5.38;;;3.47;;
77866;SDS011;67271;59.120;37.970;2023-06-22T12:59:28;4.43;;;3.25;;
77866;SDS011;67271;59.120;37.970;2023-06-22T13:01:54;9.73;;;3.63;;
77866;SDS011;67271;59.120;37.970;2023-06-22T13:04:20;7.32;;;3.28;;
77866;SDS011;67271;59.120;37.970;2023-06-22T13:06:46;7.68;;;3.50;;
77866;SDS011;67271;59.120;37.970;2023-06-22T13:09:19;6.53;;;3.70;;
77866;SDS011;67271;59.120;37.970;2023-06-22T13:11:45;9.25;;;4.47;;
77866;SDS011;67271;59.120;37.970;2023-06-22T13:14:11;6.78;;;4.55;;
77866;SDS011;67271;59.120;37.970;2023-06-22T13:16:37;11.48;;;3.78;;
77866;SDS011;67271;59.120;37.970;2023-06-22T13:19:02;5.97;;;3.78;;
77866;SDS011;67271;59.120;37.970;2023-06-22T13:21:28;7.93;;;3.72;;
77866;SDS011;67271;59.120;37.970;2023-06-22T13:23:55;5.53;;;3.58;;
77866;SDS011;67271;59.120;37.970;2023-06-22T13:26:21;5.13;;;3.40;;
77866;SDS011;67271;59.120;37.970;2023-06-22T13:28:48;5.97;;;3.72;;
77866;SDS011;67271;59.120;37.970;2023-06-22T13:31:14;4.47;;;3.55;;
77866;SDS011;67271;59.120;37.970;2023-06-22T13:33:39;7.65;;;4.07;;
77866;SDS011;67271;59.120;37.970;2023-06-22T13:36:06;5.18;;;3.08;;
77866;SDS011;67271;59.120;37.970;2023-06-22T13:38:35;7.78;;;3.78;;
77866;SDS011;67271;59.120;37.970;2023-06-22T13:41:04;5.68;;;3.63;;
77866;SDS011;67271;59.120;37.970;2023-06-22T13:43:30;5.55;;;3.97;;
77866;SDS011;67271;59.120;37.970;2023-06-22T13:45:57;8.77;;;3.97;;
77866;SDS011;67271;59.120;37.970;2023-06-22T13:48:23;5.63;;;3.53;;
77866;SDS011;67271;59.120;37.970;2023-06-22T13:50:51;6.57;;;3.42;;
77866;SDS011;67271;59.120;37.970;2023-06-22T13:53:17;5.72;;;3.80;;
77866;SDS011;67271;59.120;37.970;2023-06-22T13:55:43;6.78;;;3.45;;
77866;SDS011;67271;59.120;37.970;2023-06-22T13:58:09;7.15;;;4.20;;
77866;SDS011;67271;59.120;37.970;2023-06-22T14:00:35;6.80;;;4.15;;
77866;SDS011;67271;59.120;37.970;2023-06-22T14:03:01;9.30;;;4.25;;
77866;SDS011;67271;59.120;37.970;2023-06-22T14:05:28;7.68;;;3.72;;
77866;SDS011;67271;59.120;37.970;2023-06-22T14:07:54;7.10;;;3.70;;
77866;SDS011;67271;59.120;37.970;2023-06-22T14:10:19;7.97;;;3.92;;
77866;SDS011;67271;59.120;37.970;2023-06-22T14:12:45;9.90;;;3.80;;
77866;SDS011;67271;59.120;37.970;2023-06-22T14:15:11;7.53;;;3.88;;
77866;SDS011;67271;59.120;37.970;2023-06-22T14:17:37;5.40;;;3.72;;
77866;SDS011;67271;59.120;37.970;2023-06-22T14:20:03;6.45;;;3.80;;
77866;SDS011;67271;59.120;37.970;2023-06-22T14:22:30;8.15;;;3.45;;
77866;SDS011;67271;59.120;37.970;2023-06-22T14:24:56;6.47;;;3.60;;
77866;SDS011;67271;59.120;37.970;2023-06-22T14:27:23;6.07;;;3.53;;
77866;SDS011;67271;59.120;37.970;2023-06-22T14:29:49;5.32;;;3.22;;
77866;SDS011;67271;59.120;37.970;2023-06-22T14:32:15;8.13;;;3.83;;
77866;SDS011;67271;59.120;37.970;2023-06-22T14:34:41;5.35;;;3.60;;
77866;SDS011;67271;59.120;37.970;2023-06-22T14:37:08;6.15;;;4.00;;
77866;SDS011;67271;59.120;37.970;2023-06-22T14:39:35;7.53;;;3.60;;
77866;SDS011;67271;59.120;37.970;2023-06-22T14:42:01;9.68;;;3.92;;
77866;SDS011;67271;59.120;37.970;2023-06-22T14:44:29;8.27;;;3.78;;
77866;SDS011;67271;59.120;37.970;2023-06-22T14:46:55;6.18;;;3.80;;
77866;SDS011;67271;59.120;37.970;2023-06-22T14:49:22;7.60;;;3.72;;
77866;SDS011;67271;59.120;37.970;2023-06-22T14:51:48;8.73;;;3.67;;
77866;SDS011;67271;59.120;37.970;2023-06-22T14:54:14;8.15;;;4.10;;
77866;SDS011;67271;59.120;37.970;2023-06-22T14:56:39;10.15;;;4.28;;